createdAt,value
2018-12-29T00:00:30.684Z,20.87
2018-12-29T00:03:03.200Z,19.50
2018-12-29T00:05:34.913Z,23.55
2018-12-29T00:08:06.905Z,17.83
2018-12-29T00:10:38.918Z,19.30
2018-12-29T00:13:13.340Z,22.20
2018-12-29T00:15:45.394Z,19.48
2018-12-29T00:18:17.042Z,20.87
2018-12-29T00:20:48.777Z,22.17
2018-12-29T00:23:20.796Z,25.53
2018-12-29T00:25:52.798Z,21.03
2018-12-29T00:28:25.042Z,21.05
2018-12-29T00:30:56.738Z,24.10
2018-12-29T00:33:28.374Z,18.77
2018-12-29T00:36:00.114Z,20.75
2018-12-29T00:38:31.816Z,20.27
2018-12-29T00:41:03.765Z,24.63
2018-12-29T00:43:35.367Z,20.80
2018-12-29T00:46:07.200Z,21.20
2018-12-29T00:48:40.292Z,23.00
2018-12-29T00:51:11.963Z,18.67
2018-12-29T00:53:43.626Z,22.52
2018-12-29T00:56:15.593Z,27.33
2018-12-29T00:58:47.232Z,29.33
2018-12-29T01:01:20.400Z,24.00
2018-12-29T01:03:52.839Z,23.18
2018-12-29T01:06:24.542Z,25.53
2018-12-29T01:08:56.735Z,23.13
2018-12-29T01:11:28.716Z,22.20
2018-12-29T01:14:00.686Z,22.03
2018-12-29T01:16:32.374Z,21.73
2018-12-29T01:19:05.839Z,22.30
2018-12-29T01:21:37.462Z,23.85
2018-12-29T01:24:09.346Z,24.80
2018-12-29T01:26:40.961Z,20.52
2018-12-29T01:29:12.950Z,25.10
2018-12-29T01:31:44.989Z,24.03
2018-12-29T01:34:16.662Z,24.67
2018-12-29T01:36:48.320Z,25.70
2018-12-29T01:39:20.047Z,23.00
2018-12-29T01:41:51.775Z,28.53
2018-12-29T01:44:24.029Z,20.80
2018-12-29T01:46:57.134Z,24.83
2018-12-29T01:49:30.650Z,24.23
2018-12-29T01:52:02.462Z,26.43
2018-12-29T01:54:34.596Z,21.57
2018-12-29T01:57:06.342Z,24.70
2018-12-29T01:59:38.193Z,27.87
2018-12-29T02:02:10.910Z,22.20
2018-12-29T02:04:44.096Z,23.10
2018-12-29T02:07:16.258Z,23.40
2018-12-29T02:09:48.101Z,23.13
2018-12-29T02:12:19.813Z,24.17
2018-12-29T02:14:51.964Z,25.57
2018-12-29T02:17:23.616Z,24.00
2018-12-29T02:19:56.363Z,23.20
2018-12-29T02:22:49.337Z,24.57
2018-12-29T02:25:21.346Z,26.83
2018-12-29T02:27:53.000Z,24.57
2018-12-29T02:30:24.909Z,25.47
2018-12-29T02:32:56.980Z,25.53
2018-12-29T02:35:29.287Z,22.82
2018-12-29T02:38:02.581Z,21.87
2018-12-29T02:40:34.351Z,22.64
2018-12-29T02:43:06.210Z,25.90
2018-12-29T02:45:38.150Z,28.90
2018-12-29T02:48:10.041Z,22.90
2018-12-29T02:50:41.840Z,28.30
2018-12-29T02:53:13.676Z,24.40
2018-12-29T02:55:45.376Z,25.87
2018-12-29T02:58:17.619Z,23.85
2018-12-29T03:00:49.628Z,22.80
2018-12-29T03:03:22.182Z,25.27
2018-12-29T03:05:53.859Z,23.10
2018-12-29T03:08:25.511Z,23.45
2018-12-29T03:10:57.193Z,23.40
2018-12-29T03:13:28.877Z,23.80
2018-12-29T03:16:00.791Z,20.73
2018-12-29T03:18:32.574Z,23.37
2018-12-29T03:21:04.225Z,22.37
2018-12-29T03:23:35.836Z,23.25
2018-12-29T03:26:07.526Z,23.10
2018-12-29T03:28:39.180Z,20.08
2018-12-29T03:31:10.783Z,27.47
2018-12-29T03:33:42.672Z,28.60
2018-12-29T03:36:14.322Z,26.67
2018-12-29T03:38:46.267Z,25.03
2018-12-29T03:41:17.887Z,31.00
2018-12-29T03:43:50.678Z,23.10
2018-12-29T03:46:22.247Z,25.17
2018-12-29T03:48:54.162Z,29.30
2018-12-29T03:51:25.795Z,24.30
2018-12-29T03:53:57.573Z,25.67
2018-12-29T03:56:30.110Z,21.40
2018-12-29T03:59:01.806Z,25.73
2018-12-29T04:01:33.406Z,23.12
2018-12-29T04:04:06.194Z,26.57
2018-12-29T04:06:37.808Z,23.73
2018-12-29T04:09:36.289Z,23.43
2018-12-29T04:12:26.705Z,29.83
2018-12-29T04:14:58.391Z,26.10
2018-12-29T04:17:29.976Z,24.75
2018-12-29T04:20:01.950Z,22.97
2018-12-29T04:22:33.531Z,22.70
2018-12-29T04:25:05.434Z,25.93
2018-12-29T04:27:37.050Z,19.80
2018-12-29T04:30:08.681Z,29.50
2018-12-29T04:32:40.337Z,21.67
2018-12-29T04:35:13.651Z,28.53
2018-12-29T04:37:45.313Z,22.80
2018-12-29T04:40:17.053Z,24.60
2018-12-29T04:42:48.665Z,25.70
2018-12-29T04:45:20.633Z,25.87
2018-12-29T04:47:52.230Z,23.90
2018-12-29T04:50:24.016Z,22.07
2018-12-29T04:52:55.603Z,23.97
2018-12-29T04:55:27.291Z,25.10
2018-12-29T04:57:58.912Z,26.37
2018-12-29T05:00:30.614Z,23.87
2018-12-29T05:03:02.898Z,23.83
2018-12-29T05:05:35.143Z,28.35
2018-12-29T05:08:06.812Z,28.27
2018-12-29T05:10:38.437Z,27.83
2018-12-29T05:13:11.805Z,26.43
2018-12-29T05:15:43.454Z,27.20
2018-12-29T05:18:15.173Z,27.30
2018-12-29T05:20:46.804Z,23.43
2018-12-29T05:23:19.613Z,26.17
2018-12-29T05:25:51.248Z,25.90
2018-12-29T05:28:22.967Z,26.10
2018-12-29T05:30:54.584Z,25.03
2018-12-29T05:33:26.197Z,30.17
2018-12-29T05:35:57.837Z,26.37
2018-12-29T05:38:29.546Z,26.77
2018-12-29T05:41:01.864Z,22.60
2018-12-29T05:43:37.822Z,26.68
2018-12-29T05:46:09.475Z,28.70
2018-12-29T05:48:41.353Z,23.10
2018-12-29T05:51:13.050Z,27.67
2018-12-29T05:53:44.838Z,24.03
2018-12-29T05:56:17.867Z,25.13
2018-12-29T05:58:49.879Z,27.13
2018-12-29T06:01:21.502Z,27.43
2018-12-29T06:03:53.940Z,29.00
2018-12-29T06:06:25.556Z,26.37
2018-12-29T06:08:57.505Z,28.25
2018-12-29T06:11:29.127Z,28.47
2018-12-29T06:14:00.840Z,25.37
2018-12-29T06:16:32.467Z,24.60
2018-12-29T06:19:04.216Z,32.10
2018-12-29T06:21:35.850Z,30.73
2018-12-29T06:24:07.601Z,27.40
2018-12-29T06:26:39.241Z,27.73
2018-12-29T06:29:10.894Z,29.23
2018-12-29T06:31:42.588Z,27.45
2018-12-29T06:34:14.186Z,29.40
2018-12-29T06:36:45.834Z,26.50
2018-12-29T06:39:17.456Z,31.30
2018-12-29T06:41:49.221Z,31.23
2018-12-29T06:44:20.971Z,29.80
2018-12-29T06:46:52.958Z,33.75
2018-12-29T06:49:24.817Z,30.92
2018-12-29T06:51:56.487Z,29.30
2018-12-29T06:54:29.421Z,31.90
2018-12-29T06:57:01.224Z,35.00
2018-12-29T06:59:32.835Z,30.07
2018-12-29T07:02:04.926Z,27.73
2018-12-29T07:04:37.230Z,26.50
2018-12-29T07:07:09.048Z,28.70
2018-12-29T07:09:40.802Z,24.43
2018-12-29T07:12:12.604Z,29.00
2018-12-29T07:14:44.623Z,27.22
2018-12-29T07:17:16.326Z,29.17
2018-12-29T07:19:47.958Z,31.83
2018-12-29T07:22:20.021Z,31.10
2018-12-29T07:24:51.957Z,32.37
2018-12-29T07:27:23.850Z,31.57
2018-12-29T07:29:55.462Z,30.67
2018-12-29T07:32:27.125Z,32.10
2018-12-29T07:34:58.763Z,31.87
2018-12-29T07:37:30.899Z,32.37
2018-12-29T07:40:02.568Z,34.33
2018-12-29T07:42:34.409Z,34.90
2018-12-29T07:45:06.407Z,32.07
2018-12-29T07:47:38.707Z,32.87
2018-12-29T07:50:10.377Z,31.83
2018-12-29T07:52:42.114Z,30.17
2018-12-29T07:55:14.124Z,29.40
2018-12-29T07:57:45.906Z,32.30
2018-12-29T08:00:17.624Z,34.63
2018-12-29T08:02:50.022Z,32.40
2018-12-29T08:05:21.754Z,36.20
2018-12-29T08:07:53.402Z,35.87
2018-12-29T08:10:25.102Z,34.17
2018-12-29T08:12:57.221Z,30.00
2018-12-29T08:15:29.278Z,34.70
2018-12-29T08:18:01.045Z,35.00
2018-12-29T08:20:32.810Z,36.93
2018-12-29T08:23:04.475Z,33.07
2018-12-29T08:25:36.196Z,35.53
2018-12-29T08:28:08.112Z,37.30
2018-12-29T08:30:39.968Z,35.77
2018-12-29T08:33:13.181Z,34.30
2018-12-29T08:35:44.836Z,36.20
2018-12-29T08:38:16.634Z,37.10
2018-12-29T08:40:48.404Z,35.00
2018-12-29T08:43:20.114Z,34.93
2018-12-29T08:45:52.261Z,34.13
2018-12-29T08:48:24.236Z,35.73
2018-12-29T08:50:55.921Z,34.97
2018-12-29T08:53:27.703Z,34.50
2018-12-29T08:55:59.681Z,34.00
2018-12-29T08:58:31.352Z,31.93
2018-12-29T09:01:03.278Z,36.10
2018-12-29T09:03:35.593Z,32.33
2018-12-29T09:06:07.295Z,36.73
2018-12-29T09:08:38.956Z,28.53
2018-12-29T09:11:10.707Z,36.27
2018-12-29T09:13:42.494Z,27.50
2018-12-29T09:16:16.107Z,31.30
2018-12-29T09:18:49.775Z,30.67
2018-12-29T09:21:21.454Z,25.17
2018-12-29T09:23:54.741Z,29.47
2018-12-29T09:26:26.479Z,34.18
2018-12-29T09:28:58.117Z,36.00
2018-12-29T09:31:29.947Z,32.40
2018-12-29T09:34:01.721Z,29.13
2018-12-29T09:36:33.443Z,35.43
2018-12-29T09:39:07.159Z,29.03
2018-12-29T09:41:38.804Z,30.43
2018-12-29T09:44:10.599Z,28.80
2018-12-29T09:46:42.663Z,36.10
2018-12-29T09:49:14.540Z,30.03
2018-12-29T09:51:46.225Z,27.83
2018-12-29T09:54:18.060Z,29.10
2018-12-29T09:56:49.739Z,30.47
2018-12-29T09:59:21.421Z,28.73
2018-12-29T10:01:53.057Z,28.53
2018-12-29T10:04:25.744Z,31.47
2018-12-29T10:06:57.890Z,27.23
2018-12-29T10:09:29.724Z,27.70
2018-12-29T10:12:01.827Z,31.23
2018-12-29T10:14:33.575Z,31.57
2018-12-29T10:17:05.399Z,32.30
2018-12-29T10:19:37.194Z,30.60
2018-12-29T10:22:09.000Z,31.40
2018-12-29T10:24:40.722Z,27.30
2018-12-29T10:27:12.366Z,29.40
2018-12-29T10:29:44.396Z,27.70
2018-12-29T10:32:16.343Z,29.07
2018-12-29T10:34:48.212Z,28.60
2018-12-29T10:37:19.904Z,27.60
2018-12-29T10:39:51.839Z,25.02
2018-12-29T10:42:23.644Z,25.90
2018-12-29T10:44:55.431Z,27.37
2018-12-29T10:47:34.342Z,30.50
2018-12-29T10:50:01.247Z,27.10
2018-12-29T10:52:33.067Z,27.37
2018-12-29T10:55:05.059Z,31.30
2018-12-29T10:57:36.898Z,26.27
2018-12-29T11:00:10.461Z,26.60
2018-12-29T11:02:42.152Z,29.40
2018-12-29T11:05:14.447Z,28.70
2018-12-29T11:07:47.304Z,25.00
2018-12-29T11:10:18.978Z,29.93
2018-12-29T11:12:50.764Z,28.67
2018-12-29T11:15:22.596Z,28.40
2018-12-29T11:17:54.295Z,28.57
2018-12-29T11:20:27.610Z,26.60
2018-12-29T11:22:59.527Z,29.57
2018-12-29T11:25:31.484Z,27.17
2018-12-29T11:28:05.445Z,25.00
2018-12-29T11:30:37.106Z,28.80
2018-12-29T11:33:10.067Z,23.57
2018-12-29T11:35:41.727Z,29.20
2018-12-29T11:38:13.558Z,28.03
2018-12-29T11:40:45.309Z,26.60
2018-12-29T11:43:17.147Z,33.20
2018-12-29T11:45:49.907Z,25.58
2018-12-29T11:48:22.273Z,29.07
2018-12-29T11:50:53.950Z,29.00
2018-12-29T11:53:25.842Z,32.00
2018-12-29T11:55:57.528Z,33.00
2018-12-29T11:58:29.274Z,30.13
2018-12-29T12:01:01.062Z,26.27
2018-12-29T12:03:35.135Z,37.43
2018-12-29T12:06:06.884Z,28.97
2018-12-29T12:08:39.188Z,27.57
2018-12-29T12:11:10.985Z,31.57
2018-12-29T12:13:43.055Z,33.00
2018-12-29T12:16:15.350Z,32.47
2018-12-29T12:18:47.339Z,26.67
2018-12-29T12:21:19.760Z,28.27
2018-12-29T12:23:52.314Z,30.90
2018-12-29T12:26:25.078Z,29.00
2018-12-29T12:28:56.957Z,32.77
2018-12-29T12:31:29.250Z,36.60
2018-12-29T12:34:01.090Z,35.03
2018-12-29T12:36:33.508Z,26.60
2018-12-29T12:39:08.390Z,29.10
2018-12-29T12:41:40.965Z,33.70
2018-12-29T12:44:14.086Z,30.03
2018-12-29T12:46:46.366Z,35.40
2018-12-29T12:49:18.557Z,33.57
2018-12-29T12:51:50.274Z,31.17
2018-12-29T12:54:22.046Z,34.80
2018-12-29T12:56:53.965Z,34.07
2018-12-29T12:59:25.803Z,30.50
2018-12-29T13:01:57.582Z,36.35
2018-12-29T13:04:30.000Z,32.57
2018-12-29T13:07:02.127Z,31.97
2018-12-29T13:09:33.919Z,34.30
2018-12-29T13:12:05.757Z,31.57
2018-12-29T13:14:37.540Z,32.67
2018-12-29T13:17:09.601Z,34.67
2018-12-29T13:19:41.325Z,27.20
2018-12-29T13:22:13.090Z,31.87
2018-12-29T13:24:44.801Z,28.27
2018-12-29T13:27:18.669Z,32.13
2018-12-29T13:29:50.578Z,33.33
2018-12-29T13:32:22.242Z,38.57
2018-12-29T13:34:54.102Z,37.77
2018-12-29T13:37:26.011Z,33.10
2018-12-29T13:39:57.824Z,32.40
2018-12-29T13:42:29.714Z,35.07
2018-12-29T13:45:01.689Z,34.63
2018-12-29T13:47:33.661Z,36.45
2018-12-29T13:50:06.246Z,35.37
2018-12-29T13:52:37.974Z,35.40
2018-12-29T13:55:09.806Z,37.23
2018-12-29T13:57:41.897Z,36.60
2018-12-29T14:00:13.626Z,32.50
2018-12-29T14:02:45.483Z,37.40
2018-12-29T14:05:17.705Z,41.20
2018-12-29T14:07:50.871Z,34.18
2018-12-29T14:10:22.569Z,40.47
2018-12-29T14:12:55.961Z,32.40
2018-12-29T14:15:27.808Z,35.80
2018-12-29T14:17:59.534Z,38.30
2018-12-29T14:20:31.394Z,34.90
2018-12-29T14:23:03.117Z,33.57
2018-12-29T14:25:34.829Z,36.30
2018-12-29T14:28:06.516Z,34.17
2018-12-29T14:30:38.395Z,39.35
2018-12-29T14:33:11.154Z,40.10
2018-12-29T14:35:42.917Z,34.43
2018-12-29T14:38:14.718Z,32.17
2018-12-29T14:40:46.819Z,37.97
2018-12-29T14:43:18.543Z,37.23
2018-12-29T14:45:50.355Z,39.20
2018-12-29T14:48:22.230Z,38.90
2018-12-29T14:50:56.229Z,35.27
2018-12-29T14:53:27.871Z,39.73
2018-12-29T14:55:59.687Z,41.43
2018-12-29T14:58:31.499Z,37.93
2018-12-29T15:01:03.379Z,41.13
2018-12-29T15:03:35.038Z,40.57
2018-12-29T15:06:07.485Z,40.73
2018-12-29T15:08:39.316Z,33.03
2018-12-29T15:11:11.555Z,40.40
2018-12-29T15:13:43.316Z,36.87
2018-12-29T15:16:15.120Z,35.90
2018-12-29T15:18:48.084Z,42.93
2018-12-29T15:21:19.931Z,36.67
2018-12-29T15:23:51.744Z,36.93
2018-12-29T15:26:23.440Z,38.93
2018-12-29T15:28:55.541Z,32.80
2018-12-29T15:31:27.331Z,34.20
2018-12-29T15:33:59.038Z,33.30
2018-12-29T15:39:10.359Z,38.57
2018-12-29T15:41:43.277Z,34.90
2018-12-29T15:44:15.199Z,33.00
2018-12-29T15:46:46.863Z,37.93
2018-12-29T15:49:18.595Z,42.30
2018-12-29T15:51:50.316Z,35.63
2018-12-29T15:54:22.240Z,36.63
2018-12-29T15:56:53.927Z,32.70
2018-12-29T15:59:25.678Z,34.90
2018-12-29T16:01:57.385Z,38.57
2018-12-29T16:04:29.835Z,35.30
2018-12-29T16:07:01.664Z,35.30
2018-12-29T16:09:33.947Z,35.77
2018-12-29T16:12:05.786Z,37.50
2018-12-29T16:14:39.628Z,36.60
2018-12-29T16:17:11.327Z,32.63
2018-12-29T16:19:44.498Z,35.13
2018-12-29T16:22:16.406Z,36.77
2018-12-29T16:24:48.908Z,32.27
2018-12-29T16:27:22.077Z,36.97
2018-12-29T16:29:53.867Z,35.90
2018-12-29T16:32:26.255Z,36.70
2018-12-29T16:34:58.492Z,35.90
2018-12-29T16:37:30.341Z,36.57
2018-12-29T16:40:02.693Z,39.30
2018-12-29T16:42:34.721Z,33.00
2018-12-29T16:45:07.495Z,34.33
2018-12-29T16:47:39.210Z,36.97
2018-12-29T16:50:11.492Z,34.77
2018-12-29T16:52:43.220Z,36.50
2018-12-29T16:55:15.843Z,36.30
2018-12-29T16:57:47.552Z,35.55
2018-12-29T17:00:19.638Z,37.20
2018-12-29T17:02:51.457Z,34.63
2018-12-29T17:05:23.986Z,33.33
2018-12-29T17:07:56.236Z,35.60
2018-12-29T17:10:28.654Z,36.03
2018-12-29T17:13:00.517Z,32.27
2018-12-29T17:15:32.465Z,34.60
2018-12-29T17:18:04.622Z,34.17
2018-12-29T17:20:36.321Z,32.33
2018-12-29T17:23:07.995Z,34.53
2018-12-29T17:25:40.133Z,34.57
2018-12-29T17:28:12.296Z,32.47
2018-12-29T17:30:43.958Z,30.60
2018-12-29T17:33:15.687Z,32.57
2018-12-29T17:35:47.911Z,28.83
2018-12-29T17:38:20.020Z,32.23
2018-12-29T17:40:52.107Z,29.20
2018-12-29T17:43:25.767Z,32.37
2018-12-29T17:45:57.536Z,32.65
2018-12-29T17:48:29.535Z,33.63
2018-12-29T17:51:01.231Z,29.43
2018-12-29T17:53:33.351Z,33.93
2018-12-29T17:56:05.130Z,34.90
2018-12-29T17:58:37.815Z,35.73
2018-12-29T18:01:09.482Z,34.40
2018-12-29T18:03:41.184Z,32.28
2018-12-29T18:06:13.634Z,35.77
2018-12-29T18:08:45.705Z,33.63
2018-12-29T18:11:17.895Z,30.70
2018-12-29T18:13:50.337Z,33.45
2018-12-29T18:16:22.334Z,31.80
2018-12-29T18:18:54.083Z,31.67
2018-12-29T18:21:28.516Z,34.30
2018-12-29T18:24:01.947Z,37.00
2018-12-29T18:26:33.761Z,38.30
2018-12-29T18:29:05.732Z,32.40
2018-12-29T18:31:38.439Z,30.20
2018-12-29T18:34:10.130Z,35.52
2018-12-29T18:36:42.075Z,27.90
2018-12-29T18:39:14.391Z,29.77
2018-12-29T18:41:46.113Z,31.50
2018-12-29T18:44:18.079Z,37.00
2018-12-29T18:46:50.954Z,35.67
2018-12-29T18:49:22.656Z,29.30
2018-12-29T18:51:54.473Z,29.37
2018-12-29T18:54:26.277Z,34.80
2018-12-29T18:56:58.030Z,36.23
2018-12-29T18:59:30.859Z,35.70
2018-12-29T19:02:03.691Z,33.70
2018-12-29T19:04:35.700Z,31.87
2018-12-29T19:07:07.715Z,34.77
2018-12-29T19:09:39.415Z,31.33
2018-12-29T19:12:11.584Z,39.05
2018-12-29T19:14:43.272Z,31.50
2018-12-29T19:17:15.713Z,30.37
2018-12-29T19:19:48.026Z,38.53
2018-12-29T19:22:20.061Z,35.97
2018-12-29T19:24:52.122Z,33.60
2018-12-29T19:27:24.165Z,32.03
2018-12-29T19:29:56.154Z,31.30
2018-12-29T19:32:29.017Z,31.47
2018-12-29T19:35:01.681Z,31.33
2018-12-29T19:37:33.877Z,32.07
2018-12-29T19:40:06.509Z,30.33
2018-12-29T19:42:38.235Z,33.47
2018-12-29T19:45:10.171Z,32.90
2018-12-29T19:47:44.600Z,28.13
2018-12-29T19:50:17.248Z,38.33
2018-12-29T19:52:49.557Z,34.97
2018-12-29T19:55:22.571Z,32.97
2018-12-29T19:58:05.195Z,32.87
2018-12-29T20:00:39.377Z,37.20
2018-12-29T20:03:12.939Z,29.83
2018-12-29T20:05:45.407Z,33.47
2018-12-29T20:08:20.197Z,27.93
2018-12-29T20:10:55.211Z,30.47
2018-12-29T20:13:27.745Z,29.07
2018-12-29T20:16:01.699Z,32.10
2018-12-29T20:18:34.492Z,34.90
2018-12-29T20:21:08.569Z,32.27
2018-12-29T20:23:40.809Z,32.20
2018-12-29T20:26:12.725Z,30.63
2018-12-29T20:28:44.987Z,27.33
2018-12-29T20:31:20.174Z,31.97
2018-12-29T20:33:55.541Z,35.57
2018-12-29T20:36:28.111Z,28.40
2018-12-29T20:39:00.996Z,31.20
2018-12-29T20:41:33.220Z,31.40
2018-12-29T20:44:06.661Z,36.20
2018-12-29T20:46:41.197Z,30.67
2018-12-29T20:49:13.127Z,31.93
2018-12-29T20:51:47.031Z,28.23
2018-12-29T20:54:19.183Z,30.70
2018-12-29T20:56:52.450Z,30.00
2018-12-29T20:59:24.440Z,30.00
2018-12-29T21:01:56.568Z,31.20
2018-12-29T21:04:31.136Z,31.73
2018-12-29T21:07:05.274Z,28.50
2018-12-29T21:09:37.402Z,30.27
2018-12-29T21:12:09.218Z,33.13
2018-12-29T21:14:42.157Z,29.67
2018-12-29T21:17:14.517Z,35.70
2018-12-29T21:19:46.479Z,45.17
2018-12-29T21:22:19.484Z,32.20
2018-12-29T21:24:54.673Z,35.10
2018-12-29T21:27:26.679Z,32.07
2018-12-29T21:30:05.097Z,30.37
2018-12-29T21:32:39.479Z,29.47
2018-12-29T21:35:15.410Z,34.90
2018-12-29T21:37:47.904Z,36.23
2018-12-29T21:40:20.290Z,36.27
2018-12-29T21:42:54.410Z,32.37
2018-12-29T21:45:27.502Z,35.57
2018-12-29T21:47:59.530Z,35.77
2018-12-29T21:50:33.427Z,31.23
2018-12-29T21:53:09.191Z,37.07
2018-12-29T21:55:43.889Z,37.93
2018-12-29T21:58:18.189Z,37.70
2018-12-29T22:00:58.575Z,32.47
2018-12-29T22:03:32.392Z,35.73
2018-12-29T22:06:10.156Z,38.90
2018-12-29T22:08:46.004Z,37.55
2018-12-29T22:11:18.598Z,33.40
2018-12-29T22:13:50.817Z,39.27
2018-12-29T22:16:22.540Z,43.13
2018-12-29T22:18:54.490Z,38.50
2018-12-29T22:21:27.471Z,38.57
2018-12-29T22:24:01.037Z,40.23
2018-12-29T22:26:32.809Z,38.02
2018-12-29T22:29:04.520Z,33.30
2018-12-29T22:31:38.720Z,34.77
2018-12-29T22:34:10.715Z,42.17
2018-12-29T22:36:43.292Z,34.03
2018-12-29T22:39:15.964Z,36.58
2018-12-29T22:41:48.164Z,35.47
2018-12-29T22:44:20.221Z,33.80
2018-12-29T22:46:54.553Z,34.97
2018-12-29T22:49:27.783Z,38.50
2018-12-29T22:52:04.587Z,36.70
2018-12-29T22:54:38.802Z,32.07
2018-12-29T22:57:10.644Z,36.33
2018-12-29T22:59:42.332Z,35.80
2018-12-29T23:02:15.910Z,40.00
2018-12-29T23:04:51.242Z,37.60
2018-12-29T23:07:23.660Z,36.00
2018-12-29T23:10:01.544Z,39.77
2018-12-29T23:12:35.081Z,34.47
2018-12-29T23:15:10.474Z,35.53
2018-12-29T23:17:42.911Z,34.17
2018-12-29T23:20:24.690Z,30.77
2018-12-29T23:22:57.594Z,35.57
2018-12-29T23:25:30.041Z,34.03
2018-12-29T23:28:01.945Z,29.00
2018-12-29T23:30:35.485Z,33.70
2018-12-29T23:33:07.969Z,37.67
2018-12-29T23:35:42.674Z,35.10
2018-12-29T23:38:15.020Z,34.40
2018-12-29T23:40:52.466Z,34.53
2018-12-29T23:43:27.352Z,32.73
2018-12-29T23:46:01.970Z,36.67
2018-12-29T23:48:34.402Z,31.50
2018-12-29T23:51:07.503Z,30.47
2018-12-29T23:53:39.463Z,29.90
2018-12-29T23:56:12.543Z,33.60
2018-12-29T23:58:48.916Z,35.47
